Time;durP1;ratioP1;P1;durP2;ratioP2;P2;SDS_P1;SDS_P2;PMS_P1;PMS_P2;Temp;Humidity;BMP_temperature;BMP_pressure;BME280_temperature;BME280_humidity;BME280_pressure;Samples;Min_cycle;Max_cycle;Signal;HPM_P1;HPM_P2
2023/04/11 00:01:50;;;;;;;1.03;0.97;;;;;;;11.96;62.47;95978.03;5077206;28;20727;-69
2023/04/11 00:04:19;;;;;;;2.83;1.23;;;;;;;12.08;61.79;95969.41;5077176;28;20553;-69
2023/04/11 00:06:47;;;;;;;1.27;0.83;;;;;;;12.15;61.34;95966.78;5076387;28;20730;-69
2023/04/11 00:09:14;;;;;;;1.67;1.53;;;;;;;12.18;61.24;95986.53;5076006;28;20211;-69
2023/04/11 00:11:40;;;;;;;0.83;0.80;;;;;;;12.18;61.15;95994.44;5076729;28;20220;-69
2023/04/11 00:14:07;;;;;;;1.80;1.17;;;;;;;12.20;61.21;95989.78;5076831;28;20204;-70
2023/04/11 00:16:34;;;;;;;1.97;1.03;;;;;;;12.28;61.33;95997.56;5075974;28;20196;-69
2023/04/11 00:19:01;;;;;;;1.23;0.97;;;;;;;12.33;61.53;95989.91;5076001;28;20196;-69
2023/04/11 00:21:27;;;;;;;1.30;1.00;;;;;;;12.29;61.93;95982.53;5076399;28;20220;-69
2023/04/11 00:23:55;;;;;;;1.33;1.07;;;;;;;12.41;62.01;95970.41;5076490;28;20805;-69
2023/04/11 00:26:22;;;;;;;1.37;1.00;;;;;;;12.26;62.46;95973.16;5076290;28;20219;-69
2023/04/11 00:28:48;;;;;;;1.00;0.83;;;;;;;12.15;63.00;95980.00;5075787;28;20204;-70
2023/04/11 00:31:15;;;;;;;0.80;0.80;;;;;;;12.09;63.39;95986.03;5076370;28;20204;-70
2023/04/11 00:33:42;;;;;;;1.20;1.10;;;;;;;12.22;62.66;95982.50;5076300;28;20677;-69
2023/04/11 00:36:10;;;;;;;2.63;1.40;;;;;;;12.29;61.45;95974.59;5075936;28;20208;-69
2023/04/11 00:38:37;;;;;;;1.87;1.20;;;;;;;12.32;60.92;95967.13;5075770;28;20203;-70
2023/04/11 00:41:04;;;;;;;1.20;0.90;;;;;;;12.36;60.88;95968.34;5075965;28;20204;-69
2023/04/11 00:43:31;;;;;;;0.90;0.83;;;;;;;12.31;61.90;95959.38;5077145;28;20207;-69
2023/04/11 00:45:57;;;;;;;1.10;1.00;;;;;;;12.33;60.59;95947.63;5075951;28;20682;-69
2023/04/11 00:48:27;;;;;;;0.90;0.77;;;;;;;12.43;60.17;95944.63;5075583;28;20211;-69
2023/04/11 00:50:54;;;;;;;0.67;0.60;;;;;;;12.49;59.96;95934.06;5076425;28;20215;-69
2023/04/11 00:53:21;;;;;;;2.03;1.43;;;;;;;12.40;60.30;95919.41;5079848;28;20261;-69
2023/04/11 00:55:48;;;;;;;1.03;0.70;;;;;;;12.44;59.72;95923.28;5080028;28;20200;-69
2023/04/11 00:58:16;;;;;;;1.73;0.90;;;;;;;12.49;59.89;95920.84;5079399;28;20575;-69
2023/04/11 01:00:43;;;;;;;1.10;0.90;;;;;;;12.64;58.94;95904.84;5079638;28;20204;-70
2023/04/11 01:03:10;;;;;;;0.83;0.77;;;;;;;12.65;59.05;95904.66;5080032;28;20719;-69
2023/04/11 01:05:37;;;;;;;1.33;0.90;;;;;;;12.67;59.09;95899.19;5080078;28;20276;-69
2023/04/11 01:08:04;;;;;;;1.20;1.10;;;;;;;12.62;59.73;95897.13;5078546;28;20235;-70
2023/04/11 01:10:31;;;;;;;1.17;1.00;;;;;;;12.67;59.78;95880.69;5080216;28;20672;-70
2023/04/11 01:13:00;;;;;;;1.37;1.10;;;;;;;12.74;59.43;95885.00;5080812;28;20234;-69
2023/04/11 01:15:28;;;;;;;1.13;1.00;;;;;;;12.70;59.98;95891.66;5080064;28;20211;-69
2023/04/11 01:17:56;;;;;;;1.35;0.98;;;;;;;12.67;61.64;95894.72;5078148;28;20203;-70
2023/04/11 01:20:25;;;;;;;1.33;1.10;;;;;;;12.75;62.19;95886.59;5079291;28;20622;-69
2023/04/11 01:22:52;;;;;;;2.53;1.17;;;;;;;12.68;63.25;95885.78;5080267;28;20231;-70
2023/04/11 01:25:21;;;;;;;3.47;1.40;;;;;;;12.66;67.20;95879.06;5080140;28;20215;-70
2023/04/11 01:27:48;;;;;;;1.50;0.80;;;;;;;12.53;69.97;95877.16;5078852;28;20257;-69
2023/04/11 01:30:15;;;;;;;2.07;1.40;;;;;;;12.43;69.66;95870.63;5079243;28;20444;-70
2023/04/11 01:32:41;;;;;;;1.33;1.00;;;;;;;12.34;70.57;95875.25;5079417;28;20227;-70
2023/04/11 01:35:10;;;;;;;3.10;2.10;;;;;;;12.35;69.69;95874.25;5079312;28;20200;-70
2023/04/11 01:37:36;;;;;;;1.33;0.80;;;;;;;12.26;70.26;95867.50;5078766;28;20206;-69
2023/04/11 01:40:04;;;;;;;1.10;1.00;;;;;;;12.26;70.18;95864.84;5079157;28;20203;-70
2023/04/11 01:42:32;;;;;;;1.93;1.20;;;;;;;12.33;71.35;95867.53;5078752;28;20311;-70
2023/04/11 01:44:59;;;;;;;2.70;1.07;;;;;;;12.29;71.57;95856.53;5079565;28;20219;-70
2023/04/11 01:47:26;;;;;;;2.53;1.17;;;;;;;12.19;72.31;95855.25;5078338;28;20582;-70
2023/04/11 01:49:54;;;;;;;1.27;1.07;;;;;;;12.14;72.84;95854.22;5078968;28;20203;-70
2023/04/11 01:52:21;;;;;;;2.13;1.10;;;;;;;12.15;72.67;95861.16;5078972;28;20801;-70
2023/04/11 01:54:47;;;;;;;1.77;1.00;;;;;;;12.07;73.28;95866.59;5079824;28;20203;-70
2023/04/11 01:57:14;;;;;;;2.80;1.47;;;;;;;12.04;73.22;95856.41;5082626;28;20208;-70
2023/04/11 01:59:42;;;;;;;1.10;0.90;;;;;;;11.97;73.91;95843.16;5078796;28;20254;-69
2023/04/11 02:02:08;;;;;;;3.90;1.43;;;;;;;11.85;74.64;95844.72;5078526;28;20227;-69
2023/04/11 02:04:35;;;;;;;1.40;1.30;;;;;;;11.80;74.96;95848.94;5078576;28;20690;-69
2023/04/11 02:07:01;;;;;;;1.17;1.00;;;;;;;11.84;74.76;95845.72;5078716;28;20314;-69
2023/04/11 02:09:28;;;;;;;1.53;1.30;;;;;;;11.86;74.82;95853.44;5075380;28;20564;-69
2023/04/11 02:11:55;;;;;;;2.00;1.10;;;;;;;11.84;74.68;95844.94;5078217;28;20253;-70
2023/04/11 02:14:23;;;;;;;1.50;1.17;;;;;;;11.85;75.40;95842.09;5078786;28;20203;-70
2023/04/11 02:16:53;;;;;;;1.33;1.00;;;;;;;11.93;75.77;95843.75;5078595;28;20257;-70
2023/04/11 02:19:21;;;;;;;2.80;1.50;;;;;;;11.64;78.95;95839.50;5077662;28;20210;-69
2023/04/11 02:21:47;;;;;;;1.60;1.10;;;;;;;11.79;77.45;95837.56;5077824;28;20223;-69
2023/04/11 02:24:14;;;;;;;1.37;0.97;;;;;;;11.99;74.36;95848.25;5079544;28;20212;-69
2023/04/11 02:26:41;;;;;;;1.10;0.70;;;;;;;12.10;73.67;95842.41;5078688;28;20706;-70
2023/04/11 02:29:08;;;;;;;1.63;1.20;;;;;;;12.25;72.97;95833.34;5077098;28;20566;-69
2023/04/11 02:31:35;;;;;;;1.20;1.10;;;;;;;12.27;72.66;95833.94;5077805;28;20230;-69
2023/04/11 02:34:03;;;;;;;1.30;0.90;;;;;;;12.37;72.17;95832.59;5079084;28;20215;-69
2023/04/11 02:36:29;;;;;;;1.20;0.90;;;;;;;12.30;72.22;95823.81;5077792;28;20215;-69
2023/04/11 02:38:56;;;;;;;1.20;0.73;;;;;;;12.22;72.38;95824.00;5077483;28;20210;-69
2023/04/11 02:41:22;;;;;;;1.77;0.80;;;;;;;12.28;72.53;95819.75;5078129;28;20224;-69
2023/04/11 02:43:49;;;;;;;2.00;0.60;;;;;;;12.30;70.99;95815.09;5078056;28;20215;-70
2023/04/11 02:46:15;;;;;;;6.70;1.57;;;;;;;12.31;71.25;95808.78;5077970;28;20208;-70
2023/04/11 02:48:42;;;;;;;1.10;0.77;;;;;;;12.23;71.60;95804.50;5077388;28;20224;-69
2023/04/11 02:51:10;;;;;;;1.13;0.90;;;;;;;12.39;71.07;95811.25;5077282;28;20545;-69
2023/04/11 02:53:36;;;;;;;1.17;1.07;;;;;;;12.37;71.27;95823.84;5077583;28;20213;-69
2023/04/11 02:56:03;;;;;;;2.57;0.97;;;;;;;12.22;71.74;95816.06;5078216;28;20204;-69
2023/04/11 02:58:29;;;;;;;1.37;0.90;;;;;;;12.25;71.60;95815.66;5077244;28;20207;-69
2023/04/11 03:00:56;;;;;;;1.13;1.03;;;;;;;12.21;71.15;95806.50;5077122;28;20782;-69
2023/04/11 03:03:22;;;;;;;1.70;0.93;;;;;;;12.24;70.25;95795.56;5077346;28;20234;-69
2023/04/11 03:05:49;;;;;;;0.83;0.70;;;;;;;12.13;71.04;95787.38;5077575;28;20211;-70
2023/04/11 03:08:16;;;;;;;0.90;0.90;;;;;;;12.15;70.90;95793.28;5076828;28;20624;-69
2023/04/11 03:10:43;;;;;;;1.50;0.83;;;;;;;12.22;70.15;95791.50;5077284;28;20206;-70
2023/04/11 03:13:09;;;;;;;1.10;0.97;;;;;;;12.23;69.23;95798.38;5077307;28;20242;-69
2023/04/11 03:15:36;;;;;;;0.67;0.67;;;;;;;12.29;69.61;95795.75;5076788;28;20199;-70
2023/04/11 03:18:02;;;;;;;0.50;0.50;;;;;;;12.24;70.10;95790.28;5077115;28;20200;-69
2023/04/11 03:20:29;;;;;;;0.77;0.63;;;;;;;12.21;69.60;95789.84;5079178;28;20208;-70
2023/04/11 03:22:55;;;;;;;1.43;1.33;;;;;;;12.25;69.49;95791.09;5077541;28;20228;-69
2023/04/11 03:25:23;;;;;;;0.93;0.83;;;;;;;12.37;69.24;95790.31;5077613;28;20196;-70
2023/04/11 03:27:50;;;;;;;0.67;0.67;;;;;;;12.25;69.45;95781.31;5076647;28;20666;-70
2023/04/11 03:30:16;;;;;;;0.53;0.53;;;;;;;12.25;68.85;95778.69;5077361;28;20210;-71
2023/04/11 03:32:43;;;;;;;1.10;0.80;;;;;;;12.35;68.58;95791.53;5077232;28;20228;-69
2023/04/11 03:35:09;;;;;;;0.60;0.57;;;;;;;12.29;68.50;95785.19;5078223;28;20664;-71
2023/04/11 03:37:36;;;;;;;1.77;1.20;;;;;;;12.37;67.89;95790.31;5076990;28;20204;-71
2023/04/11 03:40:03;;;;;;;0.50;0.50;;;;;;;12.35;67.84;95802.09;5076534;28;20208;-71
2023/04/11 03:42:31;;;;;;;0.57;0.57;;;;;;;12.53;67.64;95795.22;5077129;28;20251;-71
2023/04/11 03:44:58;;;;;;;0.63;0.60;;;;;;;12.47;67.42;95798.66;5077326;28;20238;-71
2023/04/11 03:47:24;;;;;;;2.67;1.17;;;;;;;12.48;67.32;95792.38;5076307;28;20233;-71
2023/04/11 03:49:51;;;;;;;0.70;0.70;;;;;;;12.45;67.58;95790.13;5077126;28;20210;-72
2023/04/11 03:52:18;;;;;;;0.77;0.60;;;;;;;12.48;67.50;95796.84;5077134;28;20226;-71
2023/04/11 03:54:44;;;;;;;0.50;0.50;;;;;;;12.46;67.93;95794.41;5076879;28;20691;-71
2023/04/11 03:57:11;;;;;;;0.57;0.57;;;;;;;12.36;69.48;95809.03;5076824;28;20196;-71
2023/04/11 03:59:39;;;;;;;0.73;0.73;;;;;;;12.29;71.27;95808.16;5076752;28;20204;-71
2023/04/11 04:02:05;;;;;;;0.90;0.60;;;;;;;12.09;72.29;95815.19;5076638;28;20231;-71
2023/04/11 04:04:32;;;;;;;2.83;1.07;;;;;;;12.04;73.99;95830.81;5077336;28;20212;-71
2023/04/11 04:07:00;;;;;;;5.67;1.00;;;;;;;11.80;76.11;95843.66;5077156;28;20332;-71
2023/04/11 04:09:27;;;;;;;0.57;0.50;;;;;;;11.77;75.24;95844.06;5076167;28;20200;-71
2023/04/11 04:11:53;;;;;;;10.03;1.83;;;;;;;11.81;74.95;95845.28;5076305;28;20242;-71
2023/04/11 04:14:19;;;;;;;2.93;1.40;;;;;;;11.64;76.55;95852.69;5077222;28;20679;-71
2023/04/11 04:16:47;;;;;;;1.37;1.10;;;;;;;11.61;77.78;95858.38;5076064;28;20204;-71
2023/04/11 04:19:14;;;;;;;1.00;0.87;;;;;;;11.45;81.10;95878.91;5076107;28;20195;-71
2023/04/11 04:21:42;;;;;;;0.90;0.90;;;;;;;11.27;86.67;95870.63;5076931;28;20223;-71
2023/04/11 04:24:08;;;;;;;0.80;0.80;;;;;;;11.21;89.11;95871.38;5076753;28;20210;-71
2023/04/11 04:26:36;;;;;;;2.73;1.37;;;;;;;11.15;90.65;95874.81;5077400;28;20212;-71
2023/04/11 04:29:04;;;;;;;1.07;0.80;;;;;;;11.08;93.54;95868.63;5080718;28;20324;-71
2023/04/11 04:31:32;;;;;;;0.50;0.50;;;;;;;11.09;96.24;95864.19;5081497;28;20223;-71
2023/04/11 04:34:01;;;;;;;0.60;0.60;;;;;;;11.10;98.71;95868.47;5081180;28;20748;-71
2023/04/11 04:36:28;;;;;;;0.83;0.50;;;;;;;10.98;99.93;95869.94;5081664;28;20200;-71
2023/04/11 04:38:56;;;;;;;0.67;0.60;;;;;;;11.07;100.00;95877.56;5079925;28;20968;-71
2023/04/11 04:41:23;;;;;;;1.80;0.60;;;;;;;11.05;100.00;95882.19;5080787;28;20230;-71
2023/04/11 04:43:49;;;;;;;0.80;0.70;;;;;;;10.69;100.00;95892.97;5083573;28;20200;-71
2023/04/11 04:46:16;;;;;;;2.17;1.13;;;;;;;10.71;100.00;95890.97;5087533;28;20215;-71
2023/04/11 04:48:42;;;;;;;0.73;0.63;;;;;;;10.46;100.00;95892.28;5083400;28;20228;-71
2023/04/11 04:51:10;;;;;;;0.40;0.40;;;;;;;10.45;100.00;95896.75;5081945;28;20215;-71
2023/04/11 04:53:37;;;;;;;1.00;0.63;;;;;;;10.37;100.00;95902.13;5081759;28;20199;-71
2023/04/11 04:56:04;;;;;;;1.00;0.63;;;;;;;10.34;100.00;95920.09;5081131;28;20227;-71
2023/04/11 04:58:31;;;;;;;0.77;0.50;;;;;;;10.35;100.00;95916.47;5080869;28;20686;-71
2023/04/11 05:00:57;;;;;;;1.47;0.70;;;;;;;10.31;100.00;95923.09;5082629;28;20210;-71
2023/04/11 05:03:24;;;;;;;0.90;0.60;;;;;;;10.35;100.00;95911.22;5081911;28;20220;-70
2023/04/11 05:05:50;;;;;;;0.70;0.60;;;;;;;10.40;100.00;95903.56;5081774;28;20916;-70
2023/04/11 05:08:20;;;;;;;0.50;0.50;;;;;;;10.40;100.00;95903.56;5081878;28;20666;-70
2023/04/11 05:10:46;;;;;;;0.50;0.50;;;;;;;10.21;100.00;95898.03;5080897;28;20437;-70
2023/04/11 05:13:13;;;;;;;0.67;0.50;;;;;;;10.34;100.00;95888.50;5081326;28;20226;-70
2023/04/11 05:15:39;;;;;;;0.40;0.40;;;;;;;10.37;100.00;95882.84;5081193;28;20203;-70
2023/04/11 05:18:06;;;;;;;0.37;0.37;;;;;;;10.54;100.00;95879.03;5081931;28;20200;-70
2023/04/11 05:20:32;;;;;;;3.40;0.60;;;;;;;10.56;100.00;95877.81;5082087;28;20287;-70
2023/04/11 05:22:59;;;;;;;0.70;0.60;;;;;;;10.53;100.00;95857.13;5082230;28;20310;-70
2023/04/11 05:25:27;;;;;;;0.80;0.50;;;;;;;10.70;100.00;95861.16;5082288;28;20215;-70
2023/04/11 05:27:53;;;;;;;3.73;0.80;;;;;;;10.68;100.00;95867.59;5081730;28;20232;-70
2023/04/11 05:30:20;;;;;;;1.37;0.90;;;;;;;10.72;100.00;95869.69;5082356;28;20211;-70
2023/04/11 05:32:47;;;;;;;1.27;0.80;;;;;;;10.78;100.00;95876.03;5081645;28;20227;-70
2023/04/11 05:35:13;;;;;;;2.17;1.00;;;;;;;10.78;100.00;95886.56;5081523;28;20204;-70
2023/04/11 05:37:41;;;;;;;2.67;0.63;;;;;;;10.73;100.00;95902.13;5080536;28;20196;-70
2023/04/11 05:40:09;;;;;;;0.40;0.40;;;;;;;10.76;100.00;95904.41;5081936;28;20227;-70
2023/04/11 05:42:37;;;;;;;0.40;0.40;;;;;;;10.77;100.00;95913.91;5081569;28;20311;-70
2023/04/11 05:45:04;;;;;;;0.70;0.70;;;;;;;10.65;100.00;95918.84;5082627;28;20750;-70
2023/04/11 05:47:31;;;;;;;0.40;0.37;;;;;;;10.55;100.00;95923.63;5081597;28;20282;-70
2023/04/11 05:50:14;;;;;;;0.70;0.70;;;;;;;10.65;100.00;95920.69;5088725;28;20640;-70
2023/04/11 05:52:41;;;;;;;0.60;0.60;;;;;;;10.53;100.00;95930.06;5083068;28;20307;-70
2023/04/11 05:55:09;;;;;;;0.70;0.70;;;;;;;10.50;100.00;95940.97;5082452;28;20207;-70
2023/04/11 05:57:37;;;;;;;1.00;0.67;;;;;;;10.36;100.00;95947.88;5081628;28;20722;-70
2023/04/11 06:00:11;;;;;;;1.23;0.50;;;;;;;10.28;100.00;95959.50;5081766;28;20693;-70
2023/04/11 06:02:38;;;;;;;0.40;0.40;;;;;;;10.13;100.00;95975.31;5081106;28;20247;-70
2023/04/11 06:05:05;;;;;;;0.27;0.27;;;;;;;10.11;100.00;95985.19;5086931;28;20222;-71
2023/04/11 06:07:32;;;;;;;0.43;0.40;;;;;;;10.01;100.00;95983.81;5084703;28;20203;-72
2023/04/11 06:09:59;;;;;;;0.30;0.30;;;;;;;9.92;100.00;95977.78;5080487;28;20319;-69
2023/04/11 06:12:25;;;;;;;0.20;0.20;;;;;;;9.91;100.00;95984.03;5080278;28;20215;-69
2023/04/11 06:14:53;;;;;;;0.77;0.30;;;;;;;9.97;100.00;95983.34;5079823;28;20206;-69
2023/04/11 06:17:20;;;;;;;0.57;0.57;;;;;;;9.87;100.00;95980.13;5079760;28;20652;-69
2023/04/11 06:19:46;;;;;;;0.57;0.57;;;;;;;9.85;100.00;95979.50;5080647;28;20215;-70
2023/04/11 06:22:13;;;;;;;0.40;0.40;;;;;;;9.84;100.00;95979.69;5080265;28;20223;-70
2023/04/11 06:24:40;;;;;;;0.20;0.20;;;;;;;9.90;100.00;95982.41;5080512;28;20211;-70
2023/04/11 06:27:09;;;;;;;0.20;0.20;;;;;;;9.98;100.00;95987.63;5077920;28;20643;-70
2023/04/11 06:29:35;;;;;;;0.20;0.20;;;;;;;9.54;100.00;96006.09;5077180;28;20223;-70
2023/04/11 06:32:03;;;;;;;0.20;0.20;;;;;;;9.43;100.00;96009.97;5079446;28;20223;-71
2023/04/11 06:34:30;;;;;;;0.43;0.43;;;;;;;9.38;100.00;96011.44;5079793;28;20317;-72
2023/04/11 06:36:56;;;;;;;0.20;0.20;;;;;;;9.37;100.00;96029.06;5078376;28;20200;-71
2023/04/11 06:39:23;;;;;;;0.20;0.20;;;;;;;9.16;100.00;96014.88;5078701;28;20200;-71
2023/04/11 06:41:51;;;;;;;0.30;0.30;;;;;;;9.20;100.00;96026.69;5077918;28;20216;-71
2023/04/11 06:44:17;;;;;;;0.20;0.20;;;;;;;9.14;100.00;96032.66;5078711;28;20208;-71
2023/04/11 06:46:44;;;;;;;0.30;0.30;;;;;;;9.28;100.00;96024.03;5078541;28;20680;-70
2023/04/11 06:49:12;;;;;;;0.20;0.20;;;;;;;9.21;100.00;96044.91;5076678;28;20227;-70
2023/04/11 06:51:38;;;;;;;0.30;0.30;;;;;;;9.03;100.00;96040.91;5078522;28;20224;-70
2023/04/11 06:54:06;;;;;;;0.30;0.30;;;;;;;8.91;100.00;96046.72;5078215;28;20196;-72
2023/04/11 06:56:32;;;;;;;0.30;0.30;;;;;;;8.86;100.00;96044.63;5078478;28;20211;-72
2023/04/11 06:58:59;;;;;;;1.13;1.13;;;;;;;8.80;100.00;96047.94;5077237;28;20199;-71
2023/04/11 07:04:18;;;;;;;0.20;0.20;;;;;;;8.90;99.09;96053.81;5077087;27;20673;-69
2023/04/11 07:06:44;;;;;;;0.30;0.30;;;;;;;8.70;94.96;96076.19;5076219;28;20199;-69
2023/04/11 07:09:11;;;;;;;0.30;0.30;;;;;;;8.70;94.20;96073.56;5074864;28;20204;-70
2023/04/11 07:11:38;;;;;;;0.93;0.60;;;;;;;8.69;94.93;96079.00;5076085;28;20967;-69
2023/04/11 07:14:05;;;;;;;0.30;0.30;;;;;;;8.92;95.73;96075.44;5075316;28;20199;-69
2023/04/11 07:16:32;;;;;;;0.20;0.20;;;;;;;8.93;95.63;96081.53;5074858;28;20206;-70
2023/04/11 07:18:59;;;;;;;0.30;0.30;;;;;;;9.02;94.63;96076.06;5074910;28;21080;-69
2023/04/11 07:21:27;;;;;;;0.10;0.10;;;;;;;8.94;91.45;96068.22;5074441;28;20242;-70
2023/04/11 07:23:53;;;;;;;0.30;0.30;;;;;;;8.78;90.83;96057.81;5074429;28;20234;-69
2023/04/11 07:26:22;;;;;;;0.20;0.20;;;;;;;8.76;90.78;96058.97;5074194;28;20206;-70
2023/04/11 07:28:50;;;;;;;0.60;0.60;;;;;;;8.84;92.10;96058.91;5075309;28;20200;-70
2023/04/11 07:31:20;;;;;;;0.30;0.30;;;;;;;8.70;90.91;96065.69;5074348;28;20203;-70
2023/04/11 07:33:46;;;;;;;0.30;0.30;;;;;;;8.94;92.66;96072.69;5075146;28;20192;-70
2023/04/11 07:36:13;;;;;;;0.30;0.30;;;;;;;8.94;92.31;96064.78;5074615;28;20222;-70
2023/04/11 07:38:41;;;;;;;0.20;0.20;;;;;;;9.01;90.36;96069.16;5074105;28;20208;-70
2023/04/11 07:41:08;;;;;;;0.30;0.30;;;;;;;8.83;89.78;96079.09;5074945;28;20204;-70
2023/04/11 07:43:35;;;;;;;0.50;0.50;;;;;;;8.87;89.93;96072.53;5073559;28;20220;-70
2023/04/11 07:46:02;;;;;;;0.30;0.30;;;;;;;9.03;89.82;96080.34;5074216;28;20421;-70
2023/04/11 07:48:30;;;;;;;0.30;0.30;;;;;;;9.16;89.64;96067.47;5073942;28;20207;-70
2023/04/11 07:50:57;;;;;;;0.20;0.20;;;;;;;9.09;89.13;96084.91;5073607;28;20204;-70
2023/04/11 07:53:23;;;;;;;0.30;0.30;;;;;;;9.26;89.34;96083.84;5073609;28;21275;-70
2023/04/11 07:55:51;;;;;;;0.30;0.30;;;;;;;9.26;87.84;96084.66;5072460;28;20208;-70
2023/04/11 07:58:18;;;;;;;0.23;0.23;;;;;;;9.24;88.44;96084.03;5073479;28;20578;-70
2023/04/11 08:00:44;;;;;;;0.30;0.30;;;;;;;9.28;87.13;96081.88;5072890;28;20208;-70
2023/04/11 08:03:11;;;;;;;0.20;0.20;;;;;;;9.46;88.54;96085.06;5072668;28;20228;-70
2023/04/11 08:05:38;;;;;;;0.30;0.30;;;;;;;9.38;87.36;96095.59;5072673;28;20208;-70
2023/04/11 08:08:06;;;;;;;0.40;0.40;;;;;;;9.41;88.30;96097.91;5072668;28;20660;-70
2023/04/11 08:10:32;;;;;;;0.30;0.30;;;;;;;9.45;86.89;96115.78;5072116;28;20250;-70
2023/04/11 08:13:01;;;;;;;0.40;0.40;;;;;;;9.70;85.45;96115.47;5072455;28;20238;-70
2023/04/11 08:15:27;;;;;;;0.23;0.23;;;;;;;9.80;85.89;96105.53;5060969;28;20211;-71
2023/04/11 08:17:55;;;;;;;0.20;0.20;;;;;;;9.78;84.02;96099.59;5060519;28;20209;-71
2023/04/11 08:20:23;;;;;;;0.20;0.20;;;;;;;9.91;85.41;96127.97;5060156;28;20246;-71
2023/04/11 08:22:49;;;;;;;0.30;0.30;;;;;;;9.99;85.66;96128.78;5059293;28;20228;-71
2023/04/11 08:25:21;;;;;;;0.30;0.30;;;;;;;10.06;85.25;96100.75;5059067;28;20196;-71
2023/04/11 08:27:48;;;;;;;0.30;0.30;;;;;;;9.96;83.65;96099.34;5058500;28;20212;-71
2023/04/11 08:30:17;;;;;;;0.30;0.30;;;;;;;10.13;83.32;96104.31;5058292;28;20201;-71
2023/04/11 08:32:44;;;;;;;0.30;0.30;;;;;;;9.94;82.36;96096.03;5059289;28;20217;-71
2023/04/11 08:35:10;;;;;;;0.40;0.40;;;;;;;10.01;81.39;96108.34;5058564;28;20209;-71
2023/04/11 08:37:36;;;;;;;0.20;0.20;;;;;;;10.16;81.00;96121.59;5058660;28;20212;-71
2023/04/11 08:40:05;;;;;;;0.30;0.30;;;;;;;10.32;79.52;96118.78;5056038;28;20981;-71
2023/04/11 08:42:32;;;;;;;0.20;0.20;;;;;;;10.07;79.01;96128.72;5059085;28;20223;-71
2023/04/11 08:45:01;;;;;;;0.20;0.20;;;;;;;10.11;79.32;96134.47;5059232;28;20200;-71
2023/04/11 08:47:28;;;;;;;0.33;0.33;;;;;;;9.98;79.53;96140.31;5060122;28;20363;-71
2023/04/11 08:49:56;;;;;;;4.60;0.53;;;;;;;9.84;80.35;96138.38;5059404;28;20200;-71
2023/04/11 08:52:23;;;;;;;0.20;0.20;;;;;;;9.92;79.18;96140.97;5059188;28;20220;-71
2023/04/11 08:54:54;;;;;;;0.40;0.40;;;;;;;10.18;81.10;96136.19;5059860;28;20200;-71
2023/04/11 08:57:26;;;;;;;7.10;0.40;;;;;;;10.32;80.33;96135.41;5058510;28;20288;-71
2023/04/11 08:59:54;;;;;;;0.30;0.30;;;;;;;10.20;80.54;96152.63;5059368;28;20661;-71
2023/04/11 09:02:21;;;;;;;0.30;0.30;;;;;;;10.13;77.03;96153.50;5057979;28;20228;-71
2023/04/11 09:04:50;;;;;;;0.33;0.33;;;;;;;10.21;79.40;96145.53;5059239;28;20216;-71
2023/04/11 09:07:17;;;;;;;0.30;0.30;;;;;;;10.15;78.91;96152.34;5058003;28;20212;-71
2023/04/11 09:09:45;;;;;;;1.23;1.13;;;;;;;10.06;78.28;96156.03;5059111;28;20232;-71
2023/04/11 09:12:12;;;;;;;0.30;0.30;;;;;;;10.07;77.99;96154.19;5060212;28;20231;-71
2023/04/11 09:14:39;;;;;;;0.30;0.30;;;;;;;10.08;78.45;96148.78;5058513;28;20192;-71
2023/04/11 09:17:12;;;;;;;0.40;0.40;;;;;;;10.24;77.87;96135.47;5056987;28;20228;-71
2023/04/11 09:19:39;;;;;;;0.30;0.30;;;;;;;10.40;75.84;96124.81;5059057;28;20759;-71
2023/04/11 09:22:08;;;;;;;0.30;0.30;;;;;;;10.21;74.93;96141.13;5058536;28;20231;-71
2023/04/11 09:24:35;;;;;;;0.20;0.20;;;;;;;10.15;75.60;96133.09;5058574;28;20224;-71
2023/04/11 09:27:09;;;;;;;0.40;0.40;;;;;;;10.18;75.96;96117.75;5057979;28;20312;-71
2023/04/11 09:29:38;;;;;;;0.20;0.20;;;;;;;10.24;78.05;96118.88;5057359;28;20196;-71
2023/04/11 09:32:05;;;;;;;0.30;0.30;;;;;;;10.31;78.29;96127.69;5058794;28;20278;-72
2023/04/11 09:34:33;;;;;;;2.93;0.70;;;;;;;10.27;76.28;96132.47;5060424;28;20211;-71
2023/04/11 09:37:00;;;;;;;0.57;0.57;;;;;;;10.23;76.64;96144.38;5058674;28;20204;-71
2023/04/11 09:39:31;;;;;;;0.23;0.23;;;;;;;10.21;74.99;96141.13;5058817;28;20224;-71
2023/04/11 09:41:58;;;;;;;0.20;0.20;;;;;;;10.12;73.48;96147.44;5058648;28;20306;-71
2023/04/11 09:44:35;;;;;;;0.30;0.30;;;;;;;10.31;74.20;96159.28;5057317;28;20735;-71
2023/04/11 09:47:02;;;;;;;0.30;0.30;;;;;;;10.30;74.79;96155.84;5057813;28;20276;-71
2023/04/11 09:49:29;;;;;;;0.37;0.37;;;;;;;10.25;73.60;96147.66;5058300;28;20214;-71
2023/04/11 09:51:57;;;;;;;0.20;0.20;;;;;;;10.31;72.37;96157.50;5057430;28;20903;-71
2023/04/11 09:54:26;;;;;;;0.30;0.30;;;;;;;10.35;70.52;96153.50;5058694;28;20203;-71
2023/04/11 09:56:54;;;;;;;0.67;0.67;;;;;;;10.32;69.32;96155.66;5059061;28;20207;-71
2023/04/11 09:59:22;;;;;;;0.40;0.40;;;;;;;10.48;71.48;96161.63;5052648;28;21145;-71
2023/04/11 10:01:50;;;;;;;0.30;0.30;;;;;;;10.47;72.04;96158.16;5057865;28;20231;-71
2023/04/11 10:04:19;;;;;;;4.13;0.93;;;;;;;10.55;71.33;96155.47;5057600;28;20219;-71
2023/04/11 10:06:56;;;;;;;0.20;0.20;;;;;;;10.69;68.91;96167.00;5056963;28;20289;-71
2023/04/11 10:09:23;;;;;;;0.30;0.30;;;;;;;10.71;68.61;96155.28;5056893;28;20683;-71
2023/04/11 10:11:50;;;;;;;0.30;0.30;;;;;;;10.79;68.92;96159.69;5056898;28;20255;-71
2023/04/11 10:14:51;;;;;;;0.77;0.50;;;;;;;11.01;67.67;96157.78;5062903;28;20204;-71
2023/04/11 10:17:19;;;;;;;0.30;0.30;;;;;;;11.14;70.00;96157.97;4993745;28;20225;-71
2023/04/11 10:19:47;;;;;;;0.40;0.40;;;;;;;11.05;68.56;96169.59;4994823;28;21190;-71
2023/04/11 10:22:48;;;;;;;0.30;0.30;;;;;;;11.11;67.66;96168.88;5021366;28;20228;-71
2023/04/11 10:25:18;;;;;;;0.20;0.20;;;;;;;11.18;66.90;96176.88;5055406;28;20358;-71
2023/04/11 10:27:49;;;;;;;0.53;0.53;;;;;;;11.20;68.00;96162.53;5055625;28;20196;-71
2023/04/11 10:30:17;;;;;;;0.50;0.50;;;;;;;11.35;68.64;96165.16;5056297;28;20208;-71
2023/04/11 10:33:11;;;;;;;0.33;0.30;;;;;;;11.35;64.95;96163.31;5056729;28;20220;-71
2023/04/11 10:35:56;;;;;;;0.30;0.30;;;;;;;11.47;61.92;96164.50;5056483;28;20259;-71
2023/04/11 10:38:46;;;;;;;0.30;0.30;;;;;;;11.59;62.91;96158.56;5057067;28;20207;-71
2023/04/11 10:41:27;;;;;;;0.30;0.30;;;;;;;11.66;63.47;96170.03;5049897;28;20207;-71
2023/04/11 10:44:17;;;;;;;0.40;0.40;;;;;;;11.76;62.61;96157.38;5055637;28;20243;-71
2023/04/11 10:46:50;;;;;;;0.40;0.40;;;;;;;11.68;62.84;96183.06;5054641;28;20200;-71
2023/04/11 10:49:39;;;;;;;1.00;0.47;;;;;;;12.32;62.90;96162.63;5052787;28;20200;-71
2023/04/11 10:52:23;;;;;;;0.30;0.30;;;;;;;12.14;62.20;96176.47;5050939;28;20232;-71
2023/04/11 10:54:50;;;;;;;0.40;0.40;;;;;;;11.88;60.23;96177.00;5056594;28;20200;-71
2023/04/11 10:57:17;;;;;;;0.60;0.60;;;;;;;11.81;60.16;96170.84;5055870;28;20719;-71
2023/04/11 10:59:57;;;;;;;0.30;0.30;;;;;;;11.84;58.94;96169.66;5056241;28;20211;-70
2023/04/11 11:02:35;;;;;;;0.30;0.30;;;;;;;11.86;59.74;96170.28;5056467;28;20228;-71
2023/04/11 11:05:02;;;;;;;0.30;0.30;;;;;;;11.76;58.16;96175.00;5056999;28;20266;-71
2023/04/11 11:07:29;;;;;;;0.30;0.30;;;;;;;11.77;59.88;96166.94;5056408;28;20295;-71
2023/04/11 11:09:55;;;;;;;0.30;0.30;;;;;;;11.77;57.15;96177.50;5056975;28;20293;-71
2023/04/11 11:12:22;;;;;;;0.40;0.40;;;;;;;11.53;57.82;96168.25;5056349;28;20224;-71
2023/04/11 11:14:48;;;;;;;0.30;0.30;;;;;;;11.64;58.80;96163.31;5056870;28;20199;-71
2023/04/11 11:17:16;;;;;;;0.40;0.40;;;;;;;11.73;59.98;96167.47;5056962;28;20731;-71
2023/04/11 11:19:45;;;;;;;0.30;0.30;;;;;;;11.88;59.30;96174.34;5056723;28;20212;-71
2023/04/11 11:22:14;;;;;;;0.30;0.30;;;;;;;12.03;57.89;96171.66;5056971;28;20483;-71
2023/04/11 11:24:41;;;;;;;0.20;0.20;;;;;;;11.95;58.43;96179.72;5056676;28;20306;-71
2023/04/11 11:27:18;;;;;;;0.33;0.33;;;;;;;12.11;57.91;96174.22;5056405;28;20200;-71
2023/04/11 11:29:45;;;;;;;0.30;0.30;;;;;;;12.39;59.09;96174.06;5056297;28;20564;-71
2023/04/11 11:32:21;;;;;;;0.30;0.30;;;;;;;12.38;58.18;96182.19;5057210;28;20228;-71
2023/04/11 11:34:51;;;;;;;0.33;0.33;;;;;;;12.34;59.49;96180.94;5056166;28;20196;-71
2023/04/11 11:37:18;;;;;;;1.60;0.90;;;;;;;12.46;60.16;96188.19;5057516;28;20204;-71
2023/04/11 11:39:47;;;;;;;0.30;0.30;;;;;;;12.43;60.55;96195.66;5056283;28;20200;-71
2023/04/11 11:42:14;;;;;;;0.23;0.23;;;;;;;12.16;59.91;96184.00;5057125;28;20985;-71